createdAt,value
2022-12-25T06:16:35.638Z,24.30
2022-12-25T06:16:57.722Z,23.40
2022-12-25T06:17:25.895Z,20.10
2022-12-25T06:17:54.061Z,22.60
2022-12-25T06:18:22.255Z,24.90
2022-12-25T06:18:50.423Z,22.50
2022-12-25T06:19:18.593Z,22.60
2022-12-25T06:19:46.763Z,22.50
2022-12-25T06:20:14.926Z,22.40
2022-12-25T06:20:43.078Z,25.30
2022-12-25T06:21:11.255Z,19.00
2022-12-25T06:21:39.428Z,17.00
2022-12-25T06:22:07.604Z,18.50
2022-12-25T06:22:35.774Z,22.50
2022-12-25T06:23:04.199Z,20.40
2022-12-25T06:23:32.487Z,20.50
2022-12-25T06:24:00.812Z,20.30
2022-12-25T06:24:29.154Z,20.20
2022-12-25T06:24:57.307Z,21.10
2022-12-25T06:25:25.480Z,19.40
2022-12-25T06:25:53.637Z,21.90
2022-12-25T06:26:21.790Z,23.60
2022-12-25T06:26:50.003Z,22.70
2022-12-25T06:27:18.155Z,20.30
2022-12-25T06:27:46.360Z,20.50
2022-12-25T06:28:14.512Z,21.90
2022-12-25T06:28:42.687Z,20.80
2022-12-25T06:29:10.869Z,20.80
2022-12-25T06:29:39.038Z,17.60
2022-12-25T06:30:07.190Z,21.80
2022-12-25T06:30:35.354Z,20.50
2022-12-25T06:31:03.699Z,21.80
2022-12-25T06:31:31.951Z,23.30
2022-12-25T06:32:00.297Z,24.80
2022-12-25T06:32:28.467Z,24.80
2022-12-25T06:32:56.661Z,18.20
2022-12-25T06:33:24.819Z,18.50
2022-12-25T06:33:53.012Z,22.20
2022-12-25T06:34:21.200Z,20.10
2022-12-25T06:34:49.367Z,21.70
2022-12-25T06:35:17.552Z,22.60
2022-12-25T06:35:45.711Z,20.60
2022-12-25T06:36:13.879Z,25.10
2022-12-25T06:36:42.068Z,27.10
2022-12-25T06:37:10.231Z,28.30
2022-12-25T06:37:38.402Z,35.70
2022-12-25T06:38:06.573Z,29.50
2022-12-25T06:38:34.752Z,29.40
2022-12-25T06:39:02.928Z,27.00
2022-12-25T06:39:31.100Z,24.80
2022-12-25T06:39:59.259Z,26.30
2022-12-25T06:40:27.428Z,26.20
2022-12-25T06:40:55.600Z,26.70
2022-12-25T06:41:23.919Z,23.10
2022-12-25T06:41:52.322Z,25.70
2022-12-25T06:42:20.493Z,33.00
2022-12-25T06:42:48.681Z,34.00
2022-12-25T06:43:16.856Z,27.40
2022-12-25T06:43:45.032Z,24.40
2022-12-25T06:44:13.198Z,29.20
2022-12-25T06:44:41.368Z,30.70
2022-12-25T06:45:09.540Z,28.10
2022-12-25T06:45:37.769Z,23.10
2022-12-25T06:46:05.954Z,22.80
2022-12-25T06:46:34.200Z,25.80
2022-12-25T06:47:02.356Z,21.70
2022-12-25T06:47:30.531Z,23.30
2022-12-25T06:47:58.699Z,23.70
2022-12-25T06:48:26.873Z,24.60
2022-12-25T06:48:55.049Z,22.60
2022-12-25T06:49:23.219Z,23.90
2022-12-25T06:49:51.384Z,28.90
2022-12-25T06:50:19.563Z,31.60
2022-12-25T06:50:47.751Z,26.00
2022-12-25T06:51:15.920Z,30.80
2022-12-25T06:51:44.135Z,24.10
2022-12-25T06:52:12.299Z,22.70
2022-12-25T06:52:40.489Z,22.70
2022-12-25T06:53:08.662Z,26.20
2022-12-25T06:53:39.780Z,27.20
2022-12-25T06:54:08.215Z,23.20
2022-12-25T06:54:36.382Z,29.60
2022-12-25T06:55:04.576Z,32.50
2022-12-25T06:55:32.743Z,34.90
2022-12-25T06:56:00.905Z,26.10
2022-12-25T06:56:29.071Z,31.90
2022-12-25T06:56:57.248Z,32.00
2022-12-25T06:57:25.430Z,44.70
2022-12-25T06:57:53.602Z,40.10
2022-12-25T06:58:21.766Z,32.50
2022-12-25T06:58:49.980Z,34.30
2022-12-25T06:59:18.132Z,51.40
2022-12-25T06:59:49.910Z,52.60
2022-12-25T07:00:14.800Z,55.30
2022-12-25T07:00:43.031Z,59.30
2022-12-25T07:01:11.222Z,60.50
2022-12-25T07:01:39.634Z,55.20
2022-12-25T07:02:07.965Z,108.90
2022-12-25T07:02:36.390Z,66.60
2022-12-25T07:03:04.753Z,59.70
2022-12-25T07:03:32.944Z,63.00
2022-12-25T07:04:01.307Z,58.10
2022-12-25T07:04:29.551Z,66.70
2022-12-25T07:04:57.730Z,72.90
2022-12-25T07:05:26.632Z,73.30
2022-12-25T07:05:55.117Z,70.80
2022-12-25T07:06:23.551Z,59.20
2022-12-25T07:06:51.831Z,53.50
2022-12-25T07:07:20.116Z,54.40
2022-12-25T07:07:48.292Z,64.50
2022-12-25T07:08:16.486Z,81.80
2022-12-25T07:08:44.651Z,64.60
2022-12-25T07:09:12.815Z,67.40
2022-12-25T07:09:41.012Z,81.70
2022-12-25T07:10:09.180Z,82.20
2022-12-25T07:10:37.389Z,86.00
2022-12-25T07:11:05.555Z,89.70
2022-12-25T07:11:33.723Z,103.60
2022-12-25T07:12:01.920Z,103.50
2022-12-25T07:12:30.113Z,81.80
2022-12-25T07:12:58.276Z,73.50
2022-12-25T07:13:26.435Z,77.70
2022-12-25T07:13:54.611Z,76.30
2022-12-25T07:14:24.489Z,130.40
2022-12-25T07:14:50.403Z,71.30
2022-12-25T07:15:18.556Z,54.40
2022-12-25T07:15:46.726Z,52.00
2022-12-25T07:16:14.907Z,43.80
2022-12-25T07:16:43.117Z,51.70
2022-12-25T07:17:11.347Z,53.50
2022-12-25T07:17:39.494Z,48.50
2022-12-25T07:18:07.652Z,44.50
2022-12-25T07:18:35.828Z,63.80
2022-12-25T07:19:03.982Z,54.40
2022-12-25T07:19:32.490Z,53.20
2022-12-25T07:20:00.714Z,44.10
2022-12-25T07:20:28.917Z,47.30
2022-12-25T07:20:57.055Z,44.50
2022-12-25T07:21:25.391Z,57.00
2022-12-25T07:21:53.594Z,81.60
2022-12-25T07:22:21.769Z,61.90
2022-12-25T07:22:49.938Z,52.90
2022-12-25T07:23:18.107Z,81.40
2022-12-25T07:23:46.285Z,82.10
2022-12-25T07:24:14.449Z,73.00
2022-12-25T07:24:42.630Z,62.20
2022-12-25T07:25:10.792Z,52.10
2022-12-25T07:25:38.990Z,55.50
2022-12-25T07:26:07.136Z,85.40
2022-12-25T07:26:35.312Z,95.70
2022-12-25T07:27:03.482Z,95.10
2022-12-25T07:27:31.681Z,80.60
2022-12-25T07:27:59.892Z,51.30
2022-12-25T07:28:28.083Z,61.80
2022-12-25T07:28:56.259Z,81.10
2022-12-25T07:29:24.538Z,65.00
2022-12-25T07:29:52.695Z,56.60
2022-12-25T07:30:20.910Z,50.20
2022-12-25T07:30:49.065Z,56.60
2022-12-25T07:31:17.340Z,66.10
2022-12-25T07:31:45.553Z,88.40
2022-12-25T07:32:13.904Z,82.60
2022-12-25T07:32:46.819Z,79.50
2022-12-25T07:33:10.577Z,75.40
2022-12-25T07:33:38.746Z,95.20
2022-12-25T07:34:06.913Z,69.90
2022-12-25T07:34:35.088Z,73.00
2022-12-25T07:35:03.259Z,73.70
2022-12-25T07:35:31.426Z,91.90
2022-12-25T07:35:59.582Z,82.40
2022-12-25T07:36:27.792Z,96.50
2022-12-25T07:36:55.961Z,120.70
2022-12-25T07:37:24.151Z,85.80
2022-12-25T07:38:06.234Z,75.10
2022-12-25T07:38:23.219Z,71.30
2022-12-25T07:38:51.370Z,84.90
2022-12-25T07:39:19.541Z,98.30
2022-12-25T07:39:47.714Z,91.60
2022-12-25T07:40:15.900Z,83.00
2022-12-25T07:40:44.051Z,103.10
2022-12-25T07:41:12.225Z,175.00
2022-12-25T07:41:40.385Z,112.80
2022-12-25T07:42:08.557Z,82.70
2022-12-25T07:42:36.745Z,77.30
2022-12-25T07:43:04.930Z,82.80
2022-12-25T07:43:33.085Z,120.40
2022-12-25T07:44:01.261Z,85.50
2022-12-25T07:44:29.466Z,120.40
2022-12-25T07:44:57.659Z,129.70
2022-12-25T07:45:25.908Z,103.70
2022-12-25T07:45:54.152Z,98.10
2022-12-25T07:46:22.388Z,102.00
2022-12-25T07:46:50.555Z,94.70
2022-12-25T07:47:18.760Z,84.30
2022-12-25T07:47:46.950Z,79.70
2022-12-25T07:48:16.793Z,86.30
2022-12-25T07:48:45.236Z,74.40
2022-12-25T07:49:13.433Z,89.60
2022-12-25T07:49:41.603Z,89.40
2022-12-25T07:50:09.780Z,91.10
2022-12-25T07:50:37.994Z,78.30
2022-12-25T07:51:06.203Z,118.30
2022-12-25T07:51:34.358Z,140.10
2022-12-25T07:52:02.534Z,113.10
2022-12-25T07:52:30.720Z,112.00
2022-12-25T07:52:58.890Z,137.30
2022-12-25T07:53:27.073Z,110.10
2022-12-25T07:53:55.249Z,137.10
2022-12-25T07:54:23.410Z,103.20
2022-12-25T07:54:51.583Z,152.60
2022-12-25T07:55:19.755Z,144.20
2022-12-25T07:55:47.930Z,146.80
2022-12-25T07:56:16.101Z,141.40
2022-12-25T07:56:44.273Z,131.80
2022-12-25T07:57:12.439Z,138.60
2022-12-25T07:57:40.635Z,101.20
2022-12-25T07:58:08.796Z,124.30
2022-12-25T07:58:36.967Z,108.50
2022-12-25T07:59:05.143Z,143.30
2022-12-25T07:59:33.314Z,143.00
2022-12-25T08:00:01.495Z,105.50
2022-12-25T08:00:29.650Z,129.80
2022-12-25T08:00:57.880Z,167.30
2022-12-25T08:01:26.266Z,149.20
2022-12-25T08:01:54.909Z,117.70
2022-12-25T08:02:23.477Z,129.90
2022-12-25T08:02:52.038Z,110.60
2022-12-25T08:03:19.517Z,146.10
2022-12-25T08:03:48.059Z,101.30
2022-12-25T08:04:16.344Z,133.60
2022-12-25T08:04:44.500Z,110.00
2022-12-25T08:05:12.672Z,101.00
2022-12-25T08:05:40.846Z,110.40
2022-12-25T08:06:09.018Z,110.10
2022-12-25T08:06:37.190Z,117.60
2022-12-25T08:07:05.410Z,147.80
2022-12-25T08:07:33.597Z,121.60
2022-12-25T08:08:01.764Z,135.50
2022-12-25T08:08:29.940Z,118.20
2022-12-25T08:08:58.149Z,104.30
2022-12-25T08:09:26.307Z,152.30
2022-12-25T08:09:54.469Z,123.50
2022-12-25T08:10:22.637Z,122.30
2022-12-25T08:10:50.807Z,122.00
2022-12-25T08:11:18.961Z,127.90
2022-12-25T08:11:47.130Z,100.80
2022-12-25T08:12:15.316Z,103.40
2022-12-25T08:12:43.516Z,96.90
2022-12-25T08:13:14.622Z,97.40
2022-12-25T08:13:37.436Z,102.90
2022-12-25T08:14:05.612Z,131.60
2022-12-25T08:14:33.794Z,144.90
2022-12-25T08:15:01.965Z,124.70
2022-12-25T08:15:30.149Z,160.70
2022-12-25T08:15:58.321Z,124.30
2022-12-25T08:16:26.539Z,105.20
2022-12-25T08:16:54.786Z,96.00
2022-12-25T08:17:22.943Z,125.60
2022-12-25T08:17:51.122Z,124.70
2022-12-25T08:18:22.197Z,153.70
2022-12-25T08:18:47.771Z,99.20
2022-12-25T08:19:15.930Z,104.90
2022-12-25T08:19:44.092Z,121.50
2022-12-25T08:20:12.259Z,125.80
2022-12-25T08:20:40.423Z,105.50
2022-12-25T08:21:08.617Z,88.00
2022-12-25T08:21:36.786Z,147.30
2022-12-25T08:22:04.978Z,151.20
2022-12-25T08:22:33.227Z,123.70
2022-12-25T08:23:01.398Z,135.70
2022-12-25T08:23:29.580Z,115.60
2022-12-25T08:23:57.766Z,156.00
2022-12-25T08:24:25.928Z,127.40
2022-12-25T08:24:54.097Z,113.40
2022-12-25T08:25:22.271Z,124.20
2022-12-25T08:25:50.442Z,132.30
2022-12-25T08:26:18.610Z,145.70
2022-12-25T08:26:46.785Z,133.90
2022-12-25T08:27:14.950Z,127.90
2022-12-25T08:27:43.111Z,128.90
2022-12-25T08:28:11.271Z,110.00
2022-12-25T08:28:39.724Z,101.70
2022-12-25T08:29:08.182Z,108.80
2022-12-25T08:29:36.359Z,128.90
2022-12-25T08:30:04.531Z,133.90
2022-12-25T08:30:32.714Z,130.80
2022-12-25T08:31:01.123Z,124.00
2022-12-25T08:31:29.640Z,138.30
2022-12-25T08:31:57.869Z,132.30
2022-12-25T08:32:25.369Z,126.80
2022-12-25T08:32:53.546Z,127.80
2022-12-25T08:33:21.735Z,144.60
2022-12-25T08:33:49.887Z,143.20
2022-12-25T08:34:18.065Z,140.50
2022-12-25T08:34:46.241Z,136.60
2022-12-25T08:35:14.406Z,106.10
2022-12-25T08:35:42.569Z,122.90
2022-12-25T08:36:10.739Z,146.00
2022-12-25T08:36:38.922Z,130.00
2022-12-25T08:37:07.100Z,137.90
2022-12-25T08:37:35.264Z,133.40
2022-12-25T08:38:03.453Z,138.70
2022-12-25T08:38:31.617Z,134.70
2022-12-25T08:39:03.076Z,141.00
2022-12-25T08:39:26.086Z,155.80
2022-12-25T08:39:54.247Z,182.10
2022-12-25T08:40:22.416Z,137.80
2022-12-25T08:40:50.622Z,166.50
2022-12-25T08:41:18.772Z,176.70
2022-12-25T08:41:46.939Z,167.30
2022-12-25T08:42:15.132Z,152.70
2022-12-25T08:42:43.312Z,139.60
2022-12-25T08:43:11.492Z,147.40
2022-12-25T08:43:39.635Z,175.60
2022-12-25T08:44:08.069Z,138.80
2022-12-25T08:44:36.247Z,179.40
2022-12-25T08:45:04.421Z,147.10
2022-12-25T08:45:35.157Z,157.00
2022-12-25T08:46:03.756Z,140.60
2022-12-25T08:46:31.992Z,181.10
2022-12-25T08:47:00.178Z,165.70
2022-12-25T08:47:28.363Z,140.40
2022-12-25T08:47:56.527Z,158.40
2022-12-25T08:48:24.739Z,150.00
2022-12-25T08:48:52.906Z,150.30
2022-12-25T08:49:21.064Z,173.50
2022-12-25T08:49:49.366Z,150.30
2022-12-25T08:50:17.595Z,147.30
2022-12-25T08:50:45.786Z,113.40
2022-12-25T08:51:13.967Z,124.50
2022-12-25T08:51:42.170Z,133.00
2022-12-25T08:52:10.321Z,170.30
2022-12-25T08:52:38.505Z,181.40
2022-12-25T08:53:06.684Z,159.20
2022-12-25T08:53:34.846Z,126.40
2022-12-25T08:54:03.011Z,121.10
2022-12-25T08:54:31.209Z,130.30
2022-12-25T08:54:59.355Z,135.30
2022-12-25T08:55:27.538Z,156.70
2022-12-25T08:55:55.704Z,136.70
2022-12-25T08:56:23.879Z,125.30
2022-12-25T08:56:54.116Z,147.00
2022-12-25T08:57:20.562Z,119.50
2022-12-25T08:57:48.747Z,143.80
2022-12-25T08:58:16.903Z,134.50
2022-12-25T08:58:45.098Z,125.80
2022-12-25T08:59:13.271Z,120.60
2022-12-25T08:59:41.445Z,131.10
2022-12-25T09:00:09.668Z,135.40
2022-12-25T09:00:37.811Z,126.60
2022-12-25T09:01:06.008Z,117.80
2022-12-25T09:01:34.290Z,133.80
2022-12-25T09:02:02.702Z,149.70
2022-12-25T09:02:31.205Z,109.20
2022-12-25T09:02:59.707Z,114.00
2022-12-25T09:03:28.110Z,124.40
2022-12-25T09:03:56.290Z,103.70
2022-12-25T09:04:24.461Z,81.70
2022-12-25T09:04:52.626Z,115.70
2022-12-25T09:05:20.798Z,100.60
2022-12-25T09:05:48.959Z,101.70
2022-12-25T09:06:17.153Z,104.10
2022-12-25T09:06:45.302Z,92.80
2022-12-25T09:07:13.486Z,92.60
2022-12-25T09:07:41.657Z,96.00
2022-12-25T09:08:09.819Z,113.80
2022-12-25T09:08:42.392Z,96.70
2022-12-25T09:09:06.502Z,76.90
2022-12-25T09:09:34.660Z,97.00
2022-12-25T09:10:02.850Z,94.30
2022-12-25T09:10:31.029Z,104.00
2022-12-25T09:10:59.178Z,116.40
2022-12-25T09:11:27.353Z,95.80
2022-12-25T09:11:55.556Z,87.70
2022-12-25T09:12:23.736Z,95.40
2022-12-25T09:12:51.893Z,82.40
2022-12-25T09:13:20.066Z,103.60
2022-12-25T09:13:48.239Z,96.70
2022-12-25T09:14:16.421Z,96.60
2022-12-25T09:14:44.590Z,94.70
2022-12-25T09:15:12.761Z,101.50
2022-12-25T09:15:40.976Z,110.30
2022-12-25T09:16:09.245Z,92.90
2022-12-25T09:16:37.427Z,93.60
2022-12-25T09:17:05.608Z,92.00
2022-12-25T09:17:33.797Z,109.50
2022-12-25T09:18:02.014Z,107.60
2022-12-25T09:18:30.163Z,110.50
2022-12-25T09:18:58.384Z,77.50
2022-12-25T09:19:26.522Z,73.00
2022-12-25T09:19:54.698Z,84.40
2022-12-25T09:20:22.864Z,87.70
2022-12-25T09:20:51.063Z,79.90
2022-12-25T09:21:19.223Z,82.60
2022-12-25T09:21:47.389Z,70.10
2022-12-25T09:22:15.563Z,97.10
2022-12-25T09:22:43.726Z,79.30
2022-12-25T09:23:14.298Z,94.40
2022-12-25T09:23:42.742Z,106.20
2022-12-25T09:24:10.897Z,83.60
2022-12-25T09:24:39.055Z,83.70
2022-12-25T09:25:07.228Z,99.00
2022-12-25T09:25:35.397Z,81.00
2022-12-25T09:26:03.569Z,72.80
2022-12-25T09:26:31.766Z,89.90
2022-12-25T09:26:59.923Z,96.00
2022-12-25T09:27:28.105Z,82.80
2022-12-25T09:27:56.293Z,124.10
2022-12-25T09:28:24.456Z,131.20
2022-12-25T09:28:52.942Z,115.20
2022-12-25T09:29:21.121Z,128.00
2022-12-25T09:29:49.297Z,120.50
2022-12-25T09:30:17.450Z,106.60
2022-12-25T09:30:45.678Z,113.70
2022-12-25T09:31:13.874Z,107.70
2022-12-25T09:31:42.050Z,91.00
2022-12-25T09:32:10.222Z,109.80
2022-12-25T09:32:38.466Z,106.30
2022-12-25T09:33:06.606Z,84.10
2022-12-25T09:33:34.783Z,130.70
2022-12-25T09:34:02.952Z,93.20
2022-12-25T09:34:31.103Z,99.70
2022-12-25T09:34:59.280Z,123.50
2022-12-25T09:35:27.461Z,100.70
2022-12-25T09:35:55.623Z,98.20
2022-12-25T09:36:23.855Z,91.90
2022-12-25T09:36:52.000Z,85.40
2022-12-25T09:37:20.180Z,98.00
2022-12-25T09:37:48.351Z,106.90
2022-12-25T09:38:16.532Z,101.40
2022-12-25T09:38:44.689Z,91.70
2022-12-25T09:39:12.859Z,92.40
2022-12-25T09:39:46.274Z,93.20
2022-12-25T09:40:09.533Z,103.30
2022-12-25T09:40:37.709Z,109.10
2022-12-25T09:41:05.899Z,95.30
2022-12-25T09:41:34.049Z,81.10
2022-12-25T09:42:02.231Z,93.50
2022-12-25T09:42:30.389Z,112.70
2022-12-25T09:42:58.635Z,118.40
2022-12-25T09:43:26.803Z,103.90
2022-12-25T09:43:55.020Z,120.40
2022-12-25T09:44:23.148Z,140.60
2022-12-25T09:44:51.321Z,138.60
2022-12-25T09:45:19.494Z,90.00
2022-12-25T09:45:47.677Z,106.90
2022-12-25T09:46:15.929Z,120.60
2022-12-25T09:46:44.215Z,117.10
2022-12-25T09:47:12.424Z,121.00
2022-12-25T09:47:40.596Z,118.40
2022-12-25T09:48:08.769Z,113.40
2022-12-25T09:48:36.936Z,117.50
2022-12-25T09:49:05.133Z,89.80
2022-12-25T09:49:33.321Z,130.10
2022-12-25T09:50:00.758Z,129.70
2022-12-25T09:50:28.957Z,102.90
2022-12-25T09:50:57.111Z,104.20
2022-12-25T09:51:25.333Z,112.00
2022-12-25T09:51:53.481Z,74.20
2022-12-25T09:52:21.702Z,115.00
2022-12-25T09:52:49.157Z,125.90
2022-12-25T09:53:17.338Z,103.50
2022-12-25T09:53:45.517Z,115.90
2022-12-25T09:54:13.693Z,110.80
2022-12-25T09:54:41.887Z,110.30
2022-12-25T09:55:13.394Z,127.40
2022-12-25T09:55:38.575Z,157.40
2022-12-25T09:56:06.747Z,113.20
2022-12-25T09:56:34.933Z,133.60
2022-12-25T09:57:03.091Z,183.30
2022-12-25T09:57:31.282Z,133.30
2022-12-25T09:57:59.489Z,153.40
2022-12-25T09:58:27.633Z,131.70
2022-12-25T09:58:55.820Z,105.60
2022-12-25T09:59:23.991Z,156.10
2022-12-25T09:59:52.161Z,143.80
2022-12-25T10:00:20.474Z,168.40
2022-12-25T10:00:48.679Z,131.40
2022-12-25T10:01:16.959Z,118.70
2022-12-25T10:01:45.284Z,127.00
2022-12-25T10:02:13.708Z,127.00
2022-12-25T10:02:42.143Z,98.20
2022-12-25T10:03:10.523Z,114.00
2022-12-25T10:03:38.796Z,123.50
2022-12-25T10:04:06.988Z,131.20
2022-12-25T10:04:40.671Z,117.00
2022-12-25T10:05:03.624Z,133.60
2022-12-25T10:05:31.793Z,135.90
2022-12-25T10:05:59.974Z,111.90
2022-12-25T10:06:28.138Z,127.80
2022-12-25T10:06:56.332Z,113.60
2022-12-25T10:07:24.491Z,125.00
2022-12-25T10:07:52.656Z,129.50
2022-12-25T10:08:20.831Z,120.90
2022-12-25T10:08:48.996Z,130.80
2022-12-25T10:09:17.152Z,93.80
2022-12-25T10:09:45.332Z,139.00
2022-12-25T10:10:13.487Z,121.40
2022-12-25T10:10:41.658Z,140.00
2022-12-25T10:11:09.840Z,104.60
2022-12-25T10:11:38.010Z,106.10
2022-12-25T10:12:06.204Z,99.80
2022-12-25T10:12:34.391Z,116.70
2022-12-25T10:13:02.568Z,110.90
2022-12-25T10:13:30.753Z,116.40
2022-12-25T10:13:58.924Z,107.90
2022-12-25T10:14:27.169Z,80.90
2022-12-25T10:14:55.339Z,120.50
2022-12-25T10:15:23.492Z,135.70
2022-12-25T10:15:51.751Z,136.20
2022-12-25T10:16:20.027Z,111.20
2022-12-25T10:16:48.210Z,109.60
2022-12-25T10:17:16.387Z,147.80
2022-12-25T10:17:44.546Z,100.60
2022-12-25T10:18:12.716Z,115.90
2022-12-25T10:18:40.901Z,107.70
2022-12-25T10:19:09.074Z,117.60
2022-12-25T10:19:37.223Z,104.40
2022-12-25T10:20:05.405Z,107.20
2022-12-25T10:20:33.577Z,88.60
2022-12-25T10:21:01.761Z,84.40
2022-12-25T10:21:29.932Z,103.00
2022-12-25T10:21:58.083Z,115.10
2022-12-25T10:22:26.261Z,92.90
2022-12-25T10:22:54.434Z,78.80
2022-12-25T10:23:22.600Z,80.00
2022-12-25T10:23:50.773Z,88.20
2022-12-25T10:24:18.964Z,95.40
2022-12-25T10:24:47.117Z,88.20
2022-12-25T10:25:15.296Z,100.30
2022-12-25T10:25:43.463Z,118.40
2022-12-25T10:26:11.632Z,108.20
2022-12-25T10:26:39.817Z,110.60
2022-12-25T10:27:07.971Z,112.00
2022-12-25T10:27:36.196Z,102.20
2022-12-25T10:28:04.364Z,109.00
2022-12-25T10:28:32.521Z,90.30
2022-12-25T10:29:00.696Z,86.00
2022-12-25T10:29:28.867Z,115.00
2022-12-25T10:29:57.024Z,87.10
2022-12-25T10:30:25.284Z,90.20
2022-12-25T10:30:53.532Z,85.40
2022-12-25T10:31:21.770Z,84.30
2022-12-25T10:31:49.964Z,93.40
2022-12-25T10:32:18.170Z,91.60
2022-12-25T10:32:46.352Z,85.30
2022-12-25T10:33:17.036Z,101.80
2022-12-25T10:33:45.662Z,82.00
2022-12-25T10:34:13.874Z,93.00
2022-12-25T10:34:42.004Z,89.60
2022-12-25T10:35:10.177Z,109.60
2022-12-25T10:35:38.356Z,93.00
2022-12-25T10:36:06.547Z,104.60
2022-12-25T10:36:34.703Z,115.00
2022-12-25T10:37:02.878Z,74.60
2022-12-25T10:37:31.080Z,78.70
2022-12-25T10:37:59.245Z,91.80
2022-12-25T10:38:27.407Z,87.80
2022-12-25T10:38:54.913Z,88.90
2022-12-25T10:39:23.074Z,110.60
2022-12-25T10:39:51.248Z,85.30
2022-12-25T10:40:19.404Z,76.00
2022-12-25T10:40:47.583Z,92.50
2022-12-25T10:41:15.744Z,89.80
2022-12-25T10:41:43.955Z,81.30
2022-12-25T10:42:12.080Z,98.10
2022-12-25T10:42:40.282Z,107.40
2022-12-25T10:43:08.445Z,117.80
2022-12-25T10:43:36.624Z,91.40
2022-12-25T10:44:04.781Z,90.30
2022-12-25T10:44:32.974Z,90.10
2022-12-25T10:45:01.147Z,96.40
2022-12-25T10:45:29.301Z,92.70
2022-12-25T10:45:57.600Z,89.70
2022-12-25T10:46:25.808Z,87.90
2022-12-25T10:46:54.041Z,97.60
2022-12-25T10:47:22.253Z,93.80
2022-12-25T10:47:58.563Z,108.20
2022-12-25T10:48:18.917Z,96.00
2022-12-25T10:48:47.093Z,123.40
2022-12-25T10:49:15.281Z,94.70
2022-12-25T10:49:43.466Z,114.70
2022-12-25T10:50:11.640Z,112.80
2022-12-25T10:50:39.828Z,91.70
2022-12-25T10:51:07.985Z,92.00
2022-12-25T10:51:36.167Z,78.20
2022-12-25T10:52:04.356Z,98.90
2022-12-25T10:52:32.522Z,113.30
2022-12-25T10:53:00.701Z,121.40
2022-12-25T10:53:28.960Z,94.90
2022-12-25T10:53:57.146Z,92.60
2022-12-25T10:54:25.311Z,112.00
2022-12-25T10:54:53.488Z,102.10
2022-12-25T10:55:28.194Z,89.10
2022-12-25T10:55:50.147Z,90.80
2022-12-25T10:56:18.335Z,106.20
2022-12-25T10:56:46.496Z,113.50
2022-12-25T10:57:14.675Z,108.00
2022-12-25T10:57:42.842Z,103.00
2022-12-25T10:58:11.055Z,97.50
2022-12-25T10:58:39.203Z,96.10
2022-12-25T10:59:07.412Z,96.20
2022-12-25T10:59:35.573Z,85.40
2022-12-25T11:00:03.729Z,87.80
2022-12-25T11:00:31.939Z,93.90
2022-12-25T11:01:00.100Z,86.00
2022-12-25T11:01:28.429Z,95.10
2022-12-25T11:01:56.772Z,107.90
2022-12-25T11:02:25.303Z,92.00
2022-12-25T11:02:54.075Z,88.50
2022-12-25T11:03:22.569Z,102.50
2022-12-25T11:03:50.930Z,83.90
2022-12-25T11:04:19.107Z,81.20
2022-12-25T11:04:47.304Z,92.40
2022-12-25T11:05:15.466Z,84.20
2022-12-25T11:05:43.627Z,83.40
2022-12-25T11:06:11.783Z,79.50
2022-12-25T11:06:39.960Z,71.00
2022-12-25T11:07:08.164Z,76.80
2022-12-25T11:07:36.346Z,73.80
2022-12-25T11:08:04.579Z,78.10
2022-12-25T11:08:32.737Z,73.40
2022-12-25T11:09:00.906Z,68.20
2022-12-25T11:09:29.117Z,80.30
2022-12-25T11:10:02.695Z,79.10
2022-12-25T11:10:25.753Z,80.20
2022-12-25T11:10:53.954Z,86.40
2022-12-25T11:11:22.112Z,76.20
2022-12-25T11:11:50.280Z,74.60
2022-12-25T11:12:18.466Z,76.10
2022-12-25T11:12:46.650Z,81.20
2022-12-25T11:13:14.824Z,78.10
2022-12-25T11:13:43.008Z,75.60
2022-12-25T11:14:11.157Z,67.20
2022-12-25T11:14:39.319Z,69.80
2022-12-25T11:15:07.496Z,71.30
2022-12-25T11:15:35.682Z,74.00
2022-12-25T11:16:03.908Z,66.00
2022-12-25T11:16:32.187Z,63.60
2022-12-25T11:17:00.383Z,65.60
2022-12-25T11:17:28.549Z,62.80
2022-12-25T11:17:56.753Z,60.50
2022-12-25T11:18:24.936Z,61.30
2022-12-25T11:18:53.085Z,59.70
2022-12-25T11:19:21.297Z,53.10
2022-12-25T11:19:49.480Z,52.50
2022-12-25T11:20:17.652Z,50.40
2022-12-25T11:20:47.270Z,57.70
2022-12-25T11:21:15.492Z,50.20
2022-12-25T11:21:43.657Z,42.40
2022-12-25T11:22:11.825Z,46.70
2022-12-25T11:22:40.043Z,45.10
2022-12-25T11:23:08.207Z,45.30
2022-12-25T11:23:36.374Z,45.80
2022-12-25T11:24:04.595Z,46.70
2022-12-25T11:24:32.720Z,43.30
2022-12-25T11:25:00.909Z,47.10
2022-12-25T11:25:29.069Z,44.80
2022-12-25T11:25:57.289Z,44.90
2022-12-25T11:26:25.468Z,42.40
2022-12-25T11:26:53.641Z,44.70
2022-12-25T11:27:21.803Z,43.00
2022-12-25T11:27:53.439Z,50.00
2022-12-25T11:28:16.198Z,46.10
2022-12-25T11:28:44.373Z,45.90
2022-12-25T11:29:12.558Z,41.50
2022-12-25T11:29:40.737Z,44.30
2022-12-25T11:30:14.298Z,45.90
2022-12-25T11:30:37.419Z,49.00
2022-12-25T11:31:05.649Z,47.10
2022-12-25T11:31:33.932Z,41.70
2022-12-25T11:32:02.107Z,48.50
2022-12-25T11:32:30.274Z,44.70
2022-12-25T11:32:58.453Z,47.10
2022-12-25T11:33:26.629Z,45.30
2022-12-25T11:33:54.814Z,50.40
2022-12-25T11:34:22.984Z,49.00
2022-12-25T11:34:51.145Z,47.50
2022-12-25T11:35:19.315Z,42.20
2022-12-25T11:35:47.495Z,50.30
2022-12-25T11:36:15.639Z,46.20
2022-12-25T11:36:43.828Z,49.80
2022-12-25T11:37:11.970Z,49.60
2022-12-25T11:37:40.136Z,50.70
2022-12-25T11:38:08.326Z,46.40
2022-12-25T11:38:36.490Z,46.40
2022-12-25T11:39:04.653Z,49.60
2022-12-25T11:39:32.838Z,47.10
2022-12-25T11:40:00.988Z,48.00
2022-12-25T11:40:29.188Z,47.40
2022-12-25T11:40:57.361Z,46.30
2022-12-25T11:41:25.552Z,47.60
2022-12-25T11:41:53.728Z,48.20
2022-12-25T11:42:21.904Z,52.70
2022-12-25T11:42:50.083Z,51.20
2022-12-25T11:43:18.282Z,54.50
2022-12-25T11:43:46.457Z,50.90
2022-12-25T11:44:14.622Z,49.10
2022-12-25T11:44:42.787Z,51.00
2022-12-25T11:45:10.972Z,48.50
2022-12-25T11:45:39.136Z,48.60
2022-12-25T11:46:07.367Z,49.70
2022-12-25T11:46:35.701Z,53.60
2022-12-25T11:47:03.948Z,53.80
2022-12-25T11:47:32.104Z,47.50
2022-12-25T11:48:00.276Z,52.20
2022-12-25T11:48:28.469Z,50.90
2022-12-25T11:48:56.633Z,50.60
2022-12-25T11:49:24.798Z,47.30
2022-12-25T11:49:58.587Z,48.20
2022-12-25T11:50:21.448Z,46.40
2022-12-25T11:50:49.689Z,47.70
2022-12-25T11:51:17.842Z,49.40
2022-12-25T11:51:46.042Z,48.40
2022-12-25T11:52:14.189Z,47.70
2022-12-25T11:52:42.375Z,49.80
2022-12-25T11:53:10.526Z,47.00
2022-12-25T11:53:38.730Z,44.20
2022-12-25T11:54:06.897Z,47.60
2022-12-25T11:54:35.086Z,46.60
2022-12-25T11:55:03.251Z,47.90
2022-12-25T11:55:31.412Z,48.50
2022-12-25T11:55:59.562Z,48.10
2022-12-25T11:56:27.728Z,42.90
2022-12-25T11:56:55.909Z,43.70
2022-12-25T11:57:24.093Z,39.70
2022-12-25T11:57:52.247Z,37.50
2022-12-25T11:58:20.438Z,41.10
2022-12-25T11:58:48.615Z,43.60
2022-12-25T11:59:18.547Z,39.30
2022-12-25T11:59:46.860Z,37.20
2022-12-25T12:00:15.036Z,37.50
2022-12-25T12:00:43.191Z,37.80
2022-12-25T12:01:11.379Z,37.20
2022-12-25T12:01:39.675Z,38.90
2022-12-25T12:02:08.084Z,42.00
2022-12-25T12:02:36.426Z,39.30
2022-12-25T12:03:04.782Z,36.00
2022-12-25T12:03:32.263Z,48.40
2022-12-25T12:04:00.592Z,43.40
2022-12-25T12:04:31.043Z,44.50
2022-12-25T12:04:57.272Z,38.40
2022-12-25T12:05:25.455Z,47.10
2022-12-25T12:05:53.641Z,40.50
2022-12-25T12:06:21.785Z,39.60
2022-12-25T12:06:49.971Z,39.70
2022-12-25T12:07:18.169Z,39.50
2022-12-25T12:07:46.327Z,42.60
2022-12-25T12:08:14.556Z,44.90
2022-12-25T12:08:42.710Z,42.40
2022-12-25T12:09:10.903Z,45.00
2022-12-25T12:09:39.058Z,44.50
2022-12-25T12:10:07.218Z,41.30
2022-12-25T12:10:35.413Z,43.90
2022-12-25T12:11:03.565Z,41.20
2022-12-25T12:11:31.725Z,38.70
2022-12-25T12:11:59.886Z,40.80
2022-12-25T12:12:28.051Z,40.10
2022-12-25T12:12:56.216Z,40.20
2022-12-25T12:13:24.399Z,36.20
2022-12-25T12:13:52.599Z,41.10
2022-12-25T12:14:20.757Z,39.90
2022-12-25T12:14:48.935Z,35.90
2022-12-25T12:15:17.097Z,37.50